Lake Hallie, Wisconsin
Current Conditions -  °F | °C
As of 11:56 AM on Tuesday 21 Oct 2014 (Local Time) from KEAU Reporting Station
Clear Clear  
Wind Chill: 48°   Ceiling: Unl
Heat Index: 48°   Visibility: 10mi
Dew Point: 36°   Wind: 0mph
Humidity: 63%   Direction: NA
Pressure: 30.24"   Gusts: NA
Location:  44.9743°N, 91.4379°W
Report Text: KEAU 211656Z 00000KT 10SM CLR 09/02 A3024 RMK AO2 SLP245 T00890022
Loading
Personal Weather Stations






























Interactive Weather Map
Tropical Storm Tracking
New forecast layout! Learn more

10-Day Weather Forecast

Advertisements
Track Severe Weather on mobile